createdAt,value
2022-09-25T00:02:04.277Z,606.67
2022-09-25T00:04:32.161Z,488.90
2022-09-25T00:07:00.938Z,645.38
2022-09-25T00:09:28.423Z,568.38
2022-09-25T00:11:55.897Z,637.80
2022-09-25T00:14:23.357Z,621.35
2022-09-25T00:16:50.866Z,511.58
2022-09-25T00:19:48.420Z,659.13
2022-09-25T00:22:17.314Z,576.78
2022-09-25T00:24:44.861Z,558.75
2022-09-25T00:27:12.776Z,580.47
2022-09-25T00:29:41.093Z,503.08
2022-09-25T00:32:10.830Z,539.30
2022-09-25T00:34:39.318Z,671.17
2022-09-25T00:37:07.776Z,645.40
2022-09-25T00:39:36.590Z,773.95
2022-09-25T00:42:04.381Z,565.80
2022-09-25T00:44:56.338Z,575.97
2022-09-25T00:47:31.704Z,486.38
2022-09-25T00:50:03.638Z,554.92
2022-09-25T00:52:32.454Z,539.90
2022-09-25T00:55:05.652Z,570.65
2022-09-25T00:57:35.605Z,670.13
2022-09-25T01:00:06.811Z,643.70
2022-09-25T01:02:39.451Z,625.85
2022-09-25T01:05:09.705Z,579.83
2022-09-25T01:07:42.654Z,665.28
2022-09-25T01:10:12.096Z,522.33
2022-09-25T01:12:41.545Z,638.30
2022-09-25T01:15:11.569Z,466.83
2022-09-25T01:17:45.995Z,759.08
2022-09-25T01:20:24.174Z,533.22
2022-09-25T01:23:03.356Z,435.20
2022-09-25T01:25:45.865Z,503.30
2022-09-25T01:28:41.221Z,396.55
2022-09-25T01:31:17.433Z,481.65
2022-09-25T01:33:49.365Z,460.70
2022-09-25T01:36:24.992Z,522.60
2022-09-25T01:38:54.586Z,432.75
2022-09-25T01:41:27.298Z,364.63
2022-09-25T01:44:01.227Z,447.63
2022-09-25T01:46:32.041Z,501.10
2022-09-25T01:49:04.165Z,707.63
2022-09-25T01:51:36.816Z,570.47
2022-09-25T01:54:10.724Z,622.42
2022-09-25T01:56:43.224Z,294.85
2022-09-25T01:59:18.748Z,474.85
2022-09-25T02:01:48.106Z,571.00
2022-09-25T02:04:21.820Z,372.70
2022-09-25T02:06:51.654Z,440.05
2022-09-25T02:09:24.213Z,538.30
2022-09-25T02:11:57.180Z,680.47
2022-09-25T02:14:31.865Z,713.72
2022-09-25T02:17:01.291Z,590.95
2022-09-25T02:19:46.974Z,620.08
2022-09-25T02:22:20.771Z,555.20
2022-09-25T02:24:58.488Z,365.80
2022-09-25T02:27:29.372Z,491.08
2022-09-25T02:29:59.169Z,326.25
2022-09-25T02:32:30.782Z,359.67
2022-09-25T02:35:00.182Z,332.30
2022-09-25T02:37:27.797Z,456.77
2022-09-25T02:39:58.920Z,576.10
2022-09-25T02:42:33.707Z,508.40
2022-09-25T02:45:13.250Z,311.63
2022-09-25T02:47:49.882Z,518.45
2022-09-25T02:50:23.084Z,406.10
2022-09-25T02:52:58.634Z,204.32
2022-09-25T02:55:35.160Z,533.17
2022-09-25T02:58:08.090Z,233.40
2022-09-25T03:00:40.016Z,152.52
2022-09-25T03:03:09.867Z,138.75
2022-09-25T03:05:38.414Z,133.52
2022-09-25T03:08:24.016Z,148.70
2022-09-25T03:10:51.603Z,141.07
2022-09-25T03:13:21.172Z,140.88
2022-09-25T03:15:55.902Z,126.10
2022-09-25T03:18:23.477Z,120.90
2022-09-25T03:20:50.978Z,129.18
2022-09-25T03:23:18.472Z,118.47
2022-09-25T03:25:49.863Z,123.70
2022-09-25T03:28:17.697Z,114.97
2022-09-25T03:30:45.598Z,116.75
2022-09-25T03:33:14.541Z,108.60
2022-09-25T03:35:42.037Z,112.07
2022-09-25T03:38:10.411Z,106.60
2022-09-25T03:40:37.988Z,117.78
2022-09-25T03:45:32.028Z,107.13
2022-09-25T03:47:59.529Z,108.93
2022-09-25T03:50:28.641Z,106.35
2022-09-25T03:52:57.075Z,96.72
2022-09-25T03:55:26.027Z,98.80
2022-09-25T03:57:53.548Z,116.13
2022-09-25T04:00:21.031Z,113.35
2022-09-25T04:02:48.594Z,120.60
2022-09-25T04:05:16.342Z,126.07
2022-09-25T04:07:45.180Z,123.97
2022-09-25T04:10:12.745Z,109.30
2022-09-25T04:12:43.382Z,99.60
2022-09-25T04:15:11.487Z,102.65
2022-09-25T04:17:38.971Z,110.35
2022-09-25T04:20:07.500Z,102.40
2022-09-25T04:22:35.016Z,117.18
2022-09-25T04:25:04.014Z,109.65
2022-09-25T04:27:32.274Z,107.03
2022-09-25T04:30:01.719Z,116.03
2022-09-25T04:32:47.141Z,116.20
2022-09-25T04:35:14.780Z,106.07
2022-09-25T04:37:42.277Z,104.43
2022-09-25T04:40:12.021Z,105.32
2022-09-25T04:42:39.957Z,99.47
2022-09-25T04:45:07.972Z,107.65
2022-09-25T04:47:35.457Z,102.03
2022-09-25T04:50:02.949Z,99.57
2022-09-25T04:52:31.741Z,102.70
2022-09-25T04:55:00.083Z,106.00
2022-09-25T04:57:56.512Z,112.22
2022-09-25T05:00:19.224Z,107.57
2022-09-25T05:02:46.946Z,110.45
2022-09-25T05:05:15.183Z,142.00
2022-09-25T05:07:52.274Z,153.15
2022-09-25T05:10:20.658Z,169.68
2022-09-25T05:12:50.253Z,203.82
2022-09-25T05:15:17.894Z,253.20
2022-09-25T05:17:45.365Z,244.18
2022-09-25T05:20:12.849Z,328.30
2022-09-25T05:22:40.333Z,369.85
2022-09-25T05:25:09.624Z,490.55
2022-09-25T05:27:37.104Z,486.13
2022-09-25T05:30:09.451Z,316.73
2022-09-25T05:32:36.911Z,469.05
2022-09-25T05:35:04.718Z,462.65
2022-09-25T05:37:32.877Z,464.77
2022-09-25T05:40:00.360Z,571.35
2022-09-25T05:42:31.196Z,529.45
2022-09-25T05:45:01.171Z,264.90
2022-09-25T05:47:33.881Z,410.77
2022-09-25T05:50:01.397Z,290.40
2022-09-25T05:52:28.873Z,243.48
2022-09-25T05:54:56.524Z,232.38
2022-09-25T05:57:24.411Z,262.50
2022-09-25T05:59:51.906Z,229.10
2022-09-25T06:02:19.430Z,232.63
2022-09-25T06:04:48.301Z,205.65
2022-09-25T06:07:15.776Z,171.35
2022-09-25T06:09:43.286Z,254.35
2022-09-25T06:12:10.780Z,281.60
2022-09-25T06:14:38.277Z,292.08
2022-09-25T06:17:05.761Z,273.25
2022-09-25T06:19:33.777Z,290.20
2022-09-25T06:22:02.589Z,319.52
2022-09-25T06:24:30.079Z,224.48
2022-09-25T06:26:57.557Z,175.00
2022-09-25T06:29:25.030Z,124.95
2022-09-25T06:31:53.278Z,141.43
2022-09-25T06:34:20.764Z,141.95
2022-09-25T06:36:48.336Z,204.95
2022-09-25T06:39:17.260Z,291.55
2022-09-25T06:41:44.758Z,273.35
2022-09-25T06:44:12.295Z,338.65
2022-09-25T06:46:39.889Z,287.33
2022-09-25T06:49:07.427Z,340.48
2022-09-25T06:51:36.243Z,259.17
2022-09-25T06:54:03.869Z,288.70
2022-09-25T06:56:32.704Z,269.40
2022-09-25T06:59:00.190Z,167.80
2022-09-25T07:01:27.772Z,195.80
2022-09-25T07:03:54.452Z,188.77
2022-09-25T07:06:24.246Z,219.63
2022-09-25T07:08:52.191Z,98.57
2022-09-25T07:11:21.361Z,104.85
2022-09-25T07:13:55.178Z,106.20
2022-09-25T07:16:24.760Z,72.28
2022-09-25T07:18:54.462Z,71.32
2022-09-25T07:21:23.477Z,69.15
2022-09-25T07:23:52.170Z,73.78
2022-09-25T07:26:22.362Z,66.90
2022-09-25T07:28:55.763Z,68.22
2022-09-25T07:31:25.721Z,69.30
2022-09-25T07:33:53.714Z,56.67
2022-09-25T07:36:21.653Z,62.42
2022-09-25T07:38:52.743Z,55.53
2022-09-25T07:41:22.348Z,60.97
2022-09-25T07:44:17.634Z,59.30
2022-09-25T07:46:44.645Z,60.08
2022-09-25T07:49:12.690Z,65.70
2022-09-25T07:51:40.189Z,65.38
2022-09-25T07:54:08.180Z,62.17
2022-09-25T07:56:38.040Z,59.08
2022-09-25T07:59:07.088Z,59.50
2022-09-25T08:01:38.221Z,61.97
2022-09-25T08:04:08.621Z,65.80
2022-09-25T08:06:36.535Z,64.53
2022-09-25T08:09:09.516Z,55.90
2022-09-25T08:11:38.034Z,60.72
2022-09-25T08:14:07.020Z,62.63
2022-09-25T08:16:34.690Z,56.63
2022-09-25T08:19:02.168Z,60.28
2022-09-25T08:21:29.661Z,56.60
2022-09-25T08:23:57.426Z,54.58
2022-09-25T08:26:24.945Z,54.17
2022-09-25T08:28:52.701Z,63.65
2022-09-25T08:31:21.592Z,59.05
2022-09-25T08:33:50.933Z,52.70
2022-09-25T08:36:19.141Z,52.13
2022-09-25T08:38:46.683Z,48.70
2022-09-25T08:41:17.520Z,50.00
2022-09-25T08:43:53.450Z,46.60
2022-09-25T08:46:44.504Z,48.47
2022-09-25T08:49:14.149Z,42.17
2022-09-25T08:51:45.491Z,44.30
2022-09-25T08:54:19.371Z,47.05
2022-09-25T08:56:50.527Z,47.55
2022-09-25T08:59:26.823Z,44.30
2022-09-25T09:01:59.381Z,48.28
2022-09-25T09:04:31.978Z,54.53
2022-09-25T09:07:25.859Z,51.72
2022-09-25T09:10:01.647Z,51.33
2022-09-25T09:12:37.937Z,50.08
2022-09-25T09:15:19.610Z,54.22
2022-09-25T09:17:48.415Z,54.72
2022-09-25T09:20:19.414Z,49.80
2022-09-25T09:22:50.740Z,46.03
2022-09-25T09:25:29.072Z,47.33
2022-09-25T09:28:18.046Z,46.05
2022-09-25T09:30:54.482Z,41.97
2022-09-25T09:33:41.525Z,42.13
2022-09-25T09:36:16.981Z,41.90
2022-09-25T09:38:54.404Z,35.03
2022-09-25T09:41:40.847Z,36.47
2022-09-25T09:44:19.136Z,32.33
2022-09-25T09:46:59.035Z,35.45
2022-09-25T09:49:34.112Z,30.85
2022-09-25T09:52:05.982Z,29.80
2022-09-25T09:54:42.839Z,34.22
2022-09-25T09:57:18.884Z,27.75
2022-09-25T09:59:51.032Z,28.73
2022-09-25T10:02:31.728Z,34.40
2022-09-25T10:05:05.384Z,27.40
2022-09-25T10:07:36.729Z,28.05
2022-09-25T10:10:13.434Z,25.77
2022-09-25T10:12:45.859Z,26.15
2022-09-25T10:15:18.902Z,23.67
2022-09-25T10:17:47.069Z,26.90
2022-09-25T10:20:21.451Z,26.42
2022-09-25T10:22:56.380Z,30.67
2022-09-25T10:25:36.968Z,25.17
2022-09-25T10:28:24.119Z,30.85
2022-09-25T10:30:52.224Z,25.05
2022-09-25T10:33:22.289Z,29.58
2022-09-25T10:35:54.808Z,22.48
2022-09-25T10:38:33.023Z,29.55
2022-09-25T10:41:04.018Z,29.45
2022-09-25T10:43:31.886Z,32.55
2022-09-25T10:46:10.432Z,41.45
2022-09-25T10:48:56.751Z,32.05
2022-09-25T10:51:26.658Z,28.42
2022-09-25T10:54:11.383Z,27.88
2022-09-25T10:56:39.887Z,24.63
2022-09-25T10:59:14.829Z,30.00
2022-09-25T11:01:44.821Z,20.63
2022-09-25T11:04:16.837Z,26.85
2022-09-25T11:06:48.091Z,30.52
2022-09-25T11:09:19.581Z,35.33
2022-09-25T11:11:49.793Z,31.33
2022-09-25T11:14:33.027Z,35.22
2022-09-25T11:17:05.763Z,32.55
2022-09-25T11:19:35.826Z,38.47
2022-09-25T11:22:15.029Z,32.95
2022-09-25T11:24:54.817Z,36.35
2022-09-25T11:27:33.144Z,47.90
2022-09-25T11:30:06.159Z,19.02
2022-09-25T11:32:43.836Z,24.85
2022-09-25T11:35:22.582Z,26.67
2022-09-25T11:38:03.630Z,35.58
2022-09-25T11:41:03.057Z,37.17
2022-09-25T11:43:43.341Z,36.72
2022-09-25T11:46:21.447Z,40.95
2022-09-25T11:49:01.544Z,34.00
2022-09-25T11:51:46.501Z,35.53
2022-09-25T11:54:33.741Z,34.15
2022-09-25T11:57:07.574Z,34.80
2022-09-25T11:59:48.112Z,28.35
2022-09-25T12:02:24.248Z,35.42
2022-09-25T12:05:22.744Z,31.83
2022-09-25T12:08:12.258Z,32.67
2022-09-25T12:10:51.797Z,36.25
2022-09-25T12:13:31.891Z,37.10
2022-09-25T12:16:14.455Z,37.70
2022-09-25T12:18:56.993Z,35.53
2022-09-25T12:21:34.040Z,34.85
2022-09-25T12:24:09.751Z,36.28
2022-09-25T12:26:51.185Z,33.22
2022-09-25T12:29:31.742Z,34.92
2022-09-25T12:32:05.084Z,38.42
2022-09-25T12:34:50.683Z,39.17
2022-09-25T12:37:27.665Z,38.65
2022-09-25T12:39:59.140Z,38.45
2022-09-25T12:42:40.590Z,39.20
2022-09-25T12:45:16.925Z,28.70
2022-09-25T12:47:51.434Z,35.60
2022-09-25T12:50:23.193Z,36.20
2022-09-25T12:52:57.418Z,34.63
2022-09-25T12:55:31.399Z,38.70
2022-09-25T12:58:11.886Z,36.92
2022-09-25T13:00:43.744Z,44.33
2022-09-25T13:03:18.781Z,34.30
2022-09-25T13:05:52.112Z,36.78
2022-09-25T13:08:23.943Z,36.78
2022-09-25T13:10:55.031Z,34.05
2022-09-25T13:13:26.364Z,34.15
2022-09-25T13:15:58.124Z,36.55
2022-09-25T13:18:26.940Z,40.90
2022-09-25T13:20:56.082Z,35.55
2022-09-25T13:23:30.397Z,32.40
2022-09-25T13:26:01.150Z,32.70
2022-09-25T13:28:34.323Z,33.80
2022-09-25T13:31:10.036Z,36.75
2022-09-25T13:33:48.601Z,33.03
2022-09-25T13:36:39.613Z,35.08
2022-09-25T13:39:35.042Z,33.63
2022-09-25T13:42:06.565Z,34.50
2022-09-25T13:44:50.881Z,39.67
2022-09-25T13:47:44.357Z,35.75
2022-09-25T13:50:35.323Z,35.92
2022-09-25T13:53:28.042Z,35.20
2022-09-25T13:56:18.511Z,36.60
2022-09-25T13:59:19.700Z,30.83
2022-09-25T14:01:51.070Z,35.70
2022-09-25T14:04:28.849Z,40.72
2022-09-25T14:07:04.701Z,38.95
2022-09-25T14:09:33.772Z,37.42
2022-09-25T14:12:08.372Z,41.40
2022-09-25T14:14:45.238Z,33.20
2022-09-25T14:17:17.087Z,37.88
2022-09-25T14:19:48.292Z,34.83
2022-09-25T14:22:23.072Z,39.58
2022-09-25T14:24:50.625Z,35.97
2022-09-25T14:27:23.915Z,42.90
2022-09-25T14:29:51.491Z,38.45
2022-09-25T14:32:54.547Z,43.00
2022-09-25T14:35:36.856Z,39.25
2022-09-25T14:38:36.756Z,38.70
2022-09-25T14:41:22.512Z,41.97
2022-09-25T14:44:09.678Z,40.20
2022-09-25T14:46:37.693Z,37.08
2022-09-25T14:49:16.387Z,41.05
2022-09-25T14:51:47.126Z,44.28
2022-09-25T14:54:21.661Z,44.17
2022-09-25T14:56:51.935Z,41.00
2022-09-25T14:59:32.844Z,41.13
2022-09-25T15:02:03.235Z,39.03
2022-09-25T15:04:34.566Z,41.35
2022-09-25T15:07:05.896Z,41.35
2022-09-25T15:09:37.778Z,38.70
2022-09-25T15:12:18.936Z,42.20
2022-09-25T15:15:03.624Z,41.28
2022-09-25T15:17:32.884Z,59.90
2022-09-25T15:20:05.391Z,53.28
2022-09-25T15:22:36.859Z,46.55
2022-09-25T15:25:07.019Z,47.80
2022-09-25T15:27:36.949Z,49.28
2022-09-25T15:30:05.124Z,48.13
2022-09-25T15:32:39.496Z,48.80
2022-09-25T15:35:17.545Z,59.25
2022-09-25T15:37:45.975Z,53.28
2022-09-25T15:40:22.764Z,46.53
2022-09-25T15:42:50.823Z,51.83
2022-09-25T15:45:37.617Z,44.45
2022-09-25T15:48:13.964Z,48.38
2022-09-25T15:50:45.785Z,39.85
2022-09-25T15:53:22.261Z,34.78
2022-09-25T15:55:50.697Z,41.85
2022-09-25T15:58:21.841Z,37.03
2022-09-25T16:01:18.693Z,42.70
2022-09-25T16:04:09.426Z,31.67
2022-09-25T16:06:44.531Z,33.15
2022-09-25T16:09:22.945Z,30.02
2022-09-25T16:11:50.531Z,33.70
2022-09-25T16:14:22.470Z,29.33
2022-09-25T16:16:51.574Z,31.55
2022-09-25T16:19:30.599Z,29.20
2022-09-25T16:22:03.219Z,36.92
2022-09-25T16:24:31.668Z,33.20
2022-09-25T16:27:00.936Z,33.47
2022-09-25T16:29:30.723Z,33.15
2022-09-25T16:32:03.430Z,28.15
2022-09-25T16:34:33.602Z,28.15
2022-09-25T16:37:04.397Z,27.73
2022-09-25T16:39:35.015Z,28.98
2022-09-25T16:42:30.633Z,27.35
2022-09-25T16:45:03.971Z,29.15
2022-09-25T16:47:31.835Z,28.85
2022-09-25T16:49:59.263Z,28.35
2022-09-25T16:52:32.060Z,28.90
2022-09-25T16:55:00.971Z,31.05
2022-09-25T16:57:29.194Z,31.27
2022-09-25T16:59:56.661Z,28.70
2022-09-25T17:02:33.110Z,32.75
2022-09-25T17:05:03.269Z,33.88
2022-09-25T17:07:32.239Z,30.63
2022-09-25T17:10:00.922Z,34.55
2022-09-25T17:12:30.228Z,30.83
2022-09-25T17:14:57.969Z,33.63
2022-09-25T17:17:25.424Z,33.58
2022-09-25T17:19:52.881Z,34.40
2022-09-25T17:22:20.368Z,29.67
2022-09-25T17:24:49.149Z,31.08
2022-09-25T17:27:17.234Z,30.05
2022-09-25T17:29:46.578Z,32.13
2022-09-25T17:32:15.291Z,34.30
2022-09-25T17:34:44.804Z,34.15
2022-09-25T17:37:12.546Z,34.00
2022-09-25T17:39:40.172Z,38.95
2022-09-25T17:42:11.438Z,38.75
2022-09-25T17:44:40.529Z,37.05
2022-09-25T17:47:09.912Z,37.30
2022-09-25T17:49:37.389Z,34.55
2022-09-25T17:52:05.026Z,35.90
2022-09-25T17:54:32.488Z,35.35
2022-09-25T17:56:59.951Z,34.15
2022-09-25T17:59:28.786Z,40.53
2022-09-25T18:01:59.506Z,42.10
2022-09-25T18:04:27.354Z,31.33
2022-09-25T18:06:56.524Z,41.03
2022-09-25T18:09:24.101Z,48.13
2022-09-25T18:11:52.533Z,35.65
2022-09-25T18:14:19.986Z,47.88
2022-09-25T18:16:48.763Z,50.25
2022-09-25T18:19:35.287Z,36.30
2022-09-25T18:22:18.969Z,34.47
2022-09-25T18:24:46.910Z,38.58
2022-09-25T18:27:16.335Z,47.95
2022-09-25T18:29:44.546Z,45.10
2022-09-25T18:32:13.528Z,41.08
2022-09-25T18:34:41.552Z,41.13
2022-09-25T18:37:09.525Z,46.20
2022-09-25T18:39:37.208Z,46.25
2022-09-25T18:42:05.027Z,35.95
2022-09-25T18:44:37.248Z,36.90
2022-09-25T18:47:09.100Z,44.60
2022-09-25T18:49:38.129Z,39.35
2022-09-25T18:52:06.053Z,47.35
2022-09-25T18:54:34.075Z,45.28
2022-09-25T18:57:01.601Z,39.25
2022-09-25T18:59:29.155Z,48.17
2022-09-25T19:01:56.879Z,45.33
2022-09-25T19:04:25.717Z,44.50
2022-09-25T19:06:54.584Z,42.65
2022-09-25T19:09:24.221Z,45.17
2022-09-25T19:11:51.731Z,41.13
2022-09-25T19:14:19.854Z,49.38
2022-09-25T19:16:48.132Z,45.60
2022-09-25T19:19:15.777Z,35.28
2022-09-25T19:21:44.678Z,36.22
2022-09-25T19:24:13.714Z,32.80
2022-09-25T19:26:42.669Z,41.00
2022-09-25T19:29:10.331Z,35.10
2022-09-25T19:31:38.122Z,31.63
2022-09-25T19:34:05.705Z,33.00
2022-09-25T19:36:35.542Z,33.30
2022-09-25T19:39:04.324Z,32.40
2022-09-25T19:41:35.387Z,35.28
2022-09-25T19:44:11.902Z,31.58
2022-09-25T19:46:41.536Z,37.90
2022-09-25T19:49:09.856Z,35.50
2022-09-25T19:51:38.082Z,43.85
2022-09-25T19:54:05.761Z,36.90
2022-09-25T19:56:34.666Z,42.38
2022-09-25T19:59:06.963Z,50.78
2022-09-25T20:01:34.700Z,55.55
2022-09-25T20:04:06.608Z,58.90
2022-09-25T20:06:36.583Z,36.30
2022-09-25T20:09:05.252Z,30.50
2022-09-25T20:11:35.719Z,24.67
2022-09-25T20:14:04.462Z,29.35
2022-09-25T20:16:32.456Z,23.23
2022-09-25T20:19:02.692Z,30.27
2022-09-25T20:21:32.802Z,25.38
2022-09-25T20:24:03.043Z,22.45
2022-09-25T20:26:31.392Z,23.25
2022-09-25T20:29:01.989Z,30.40
2022-09-25T20:31:32.490Z,28.45
2022-09-25T20:34:00.096Z,25.15
2022-09-25T20:36:28.157Z,23.88
2022-09-25T20:38:57.639Z,23.50
2022-09-25T20:41:27.170Z,36.88
2022-09-25T20:43:57.863Z,39.47
2022-09-25T20:46:28.024Z,21.10
2022-09-25T20:48:57.664Z,19.15
2022-09-25T20:51:27.855Z,26.33
2022-09-25T20:53:57.253Z,20.88
2022-09-25T20:56:25.472Z,20.70
2022-09-25T20:58:54.959Z,18.23
2022-09-25T21:01:24.197Z,20.88
2022-09-25T21:03:53.345Z,20.85
2022-09-25T21:06:22.451Z,19.48
2022-09-25T21:08:52.399Z,18.52
2022-09-25T21:11:20.317Z,19.60
2022-09-25T21:13:50.650Z,20.33
2022-09-25T21:16:18.955Z,19.65
2022-09-25T21:18:53.803Z,20.58
2022-09-25T21:21:21.279Z,20.88
2022-09-25T21:23:50.695Z,19.38
2022-09-25T21:26:19.459Z,20.20
2022-09-25T21:28:51.442Z,21.08
2022-09-25T21:31:20.296Z,20.08
2022-09-25T21:33:48.359Z,18.80
2022-09-25T21:36:18.419Z,18.85
2022-09-25T21:38:45.892Z,25.90
2022-09-25T21:41:15.456Z,27.92
2022-09-25T21:43:43.648Z,35.95
2022-09-25T21:46:14.170Z,45.08
2022-09-25T21:48:44.802Z,42.95
2022-09-25T21:51:14.143Z,31.90
2022-09-25T21:53:43.194Z,41.65
2022-09-25T21:56:12.489Z,24.98
2022-09-25T21:58:40.333Z,29.65
2022-09-25T22:01:10.251Z,25.95
2022-09-25T22:03:39.747Z,20.25
2022-09-25T22:06:09.893Z,35.40
2022-09-25T22:08:39.431Z,45.53
2022-09-25T22:11:08.700Z,36.53
2022-09-25T22:13:38.011Z,19.52
2022-09-25T22:16:07.079Z,31.90
2022-09-25T22:18:35.800Z,40.60
2022-09-25T22:21:03.261Z,47.30
2022-09-25T22:23:30.741Z,30.70
2022-09-25T22:26:02.225Z,34.15
2022-09-25T22:28:31.037Z,40.00
2022-09-25T22:30:58.567Z,36.33
2022-09-25T22:33:26.028Z,37.13
2022-09-25T22:35:59.291Z,38.22
2022-09-25T22:38:27.053Z,39.95
2022-09-25T22:40:54.635Z,46.58
2022-09-25T22:43:22.573Z,45.92
2022-09-25T22:45:52.370Z,36.70
2022-09-25T22:48:20.713Z,43.00
2022-09-25T22:50:53.945Z,44.67
2022-09-25T22:53:21.636Z,35.15
2022-09-25T22:55:49.703Z,33.28
2022-09-25T22:58:19.019Z,25.42
2022-09-25T23:00:50.891Z,26.88
2022-09-25T23:03:20.399Z,46.28
2022-09-25T23:05:48.734Z,44.60
2022-09-25T23:08:16.672Z,39.15
2022-09-25T23:11:06.185Z,35.90
2022-09-25T23:13:32.027Z,31.40
2022-09-25T23:16:04.117Z,30.35
2022-09-25T23:18:34.166Z,26.50
2022-09-25T23:21:01.634Z,41.90
2022-09-25T23:23:29.107Z,41.38
2022-09-25T23:26:01.702Z,24.88
2022-09-25T23:28:29.154Z,45.50
2022-09-25T23:30:56.762Z,44.25
2022-09-25T23:33:24.249Z,27.98
2022-09-25T23:35:53.007Z,29.10
2022-09-25T23:38:20.496Z,41.83
2022-09-25T23:40:48.023Z,19.90
2022-09-25T23:43:17.405Z,41.22
2022-09-25T23:45:44.970Z,34.22
2022-09-25T23:48:12.500Z,47.50
2022-09-25T23:50:40.009Z,42.70
2022-09-25T23:53:08.910Z,39.88
2022-09-25T23:55:39.773Z,29.48
2022-09-25T23:58:07.248Z,35.55
